This is the latest recevied weather packets stored in our database for station/object OH2TI. If no packets are shown the sender has not sent any weather packets the latest 10 day(s).
| Time | Temp. | Humidity | Pressure | Rain* | Wind** | Luminosity | Snow |
|---|---|---|---|---|---|---|---|
| 1777540201 | 10.56° C | 66% | 1017.9 hPa | - | - | - | - |
| 1777539576 | 10° C | 70% | 1018 hPa | - | - | - | - |
| 1777539181 | 8.89° C | 71% | 1018 hPa | - | - | - | - |
| 1777538786 | 8.89° C | 73% | 1018 hPa | - | - | - | - |
| 1777538161 | 8.33° C | 76% | 1018.1 hPa | - | - | - | - |
| 1777537341 | 7.78° C | 77% | 1018.2 hPa | - | - | - | - |
| 1777536784 | 7.78° C | 77% | 1018.1 hPa | - | - | - | - |
| 1777536296 | 7.78° C | 74% | 1018.2 hPa | - | - | - | - |
| 1777535886 | 7.78° C | 74% | 1018.3 hPa | - | - | - | - |
| 1777535221 | 7.78° C | 72% | 1018.2 hPa | - | - | - | - |
| 1777534814 | 7.78° C | 71% | 1018.2 hPa | - | - | - | - |
| 1777534281 | 7.22° C | 72% | 1018.3 hPa | - | - | - | - |
| 1777533451 | 7.22° C | 72% | 1018.3 hPa | - | - | - | - |
| 1777532651 | 7.22° C | 71% | 1018.3 hPa | - | - | - | - |
| 1777532254 | 6.67° C | 72% | 1018.2 hPa | - | - | - | - |
| 1777531561 | 6.67° C | 70% | 1018.1 hPa | - | - | - | - |
| 1777531171 | 6.67° C | 71% | 1018.3 hPa | - | - | - | - |
| 1777530668 | 6.11° C | 70% | 1018.3 hPa | - | - | - | - |
| 1777530266 | 6.11° C | 70% | 1018.3 hPa | - | - | - | - |
| 1777529536 | 5.56° C | 70% | 1018 hPa | - | - | - | - |
| 1777528951 | 5° C | 72% | 1018.1 hPa | - | - | - | - |
| 1777528214 | 5° C | 71% | 1018.3 hPa | - | - | - | - |
| 1777527516 | 5° C | 71% | 1018.4 hPa | - | - | - | - |
| 1777527021 | 5° C | 71% | 1018.5 hPa | - | - | - | - |
| 1777526693 | 4.44° C | 71% | 1018.6 hPa | - | - | - | - |
* Rain since midnight (hover to see other rain measurements)
** Current wind speed in m/s (hover to see current wind gust speed)